Time;durP1;ratioP1;P1;durP2;ratioP2;P2;SDS_P1;SDS_P2;PMS_P1;PMS_P2;Temp;Humidity;BMP_temperature;BMP_pressure;BME280_temperature;BME280_humidity;BME280_pressure;Samples;Min_cycle;Max_cycle;Signal;HPM_P1;HPM_P2
2022/06/03 00:01:22;;;;;;;3.37;3.07;;;;;;;19.43;54.03;98818.31;6948959;28;20316;-77
2022/06/03 00:05:03;;;;;;;4.03;3.67;;;;;;;19.42;54.49;98816.69;6949315;28;20191;-77
2022/06/03 00:08:38;;;;;;;4.63;3.53;;;;;;;19.49;54.45;98817.28;6948351;28;20193;-77
2022/06/03 00:12:15;;;;;;;5.00;3.70;;;;;;;19.49;54.11;98813.69;6948759;28;20314;-77
2022/06/03 00:15:54;;;;;;;3.87;3.50;;;;;;;19.24;55.16;98811.59;6948493;28;20304;-77
2022/06/03 00:19:40;;;;;;;3.73;3.43;;;;;;;18.81;55.78;98813.59;6946769;28;20318;-77
2022/06/03 00:23:34;;;;;;;6.67;3.77;;;;;;;19.26;54.63;98819.53;6948521;28;20823;-77
2022/06/03 00:27:09;;;;;;;4.10;3.80;;;;;;;19.46;54.29;98825.19;6947623;28;20315;-77
2022/06/03 00:30:41;;;;;;;3.93;3.63;;;;;;;19.59;53.84;98824.72;6947670;28;20658;-77
2022/06/03 00:34:32;;;;;;;3.70;3.40;;;;;;;19.59;53.59;98806.41;6948419;28;20211;-77
2022/06/03 00:37:57;;;;;;;4.00;3.70;;;;;;;19.42;53.70;98816.69;6946770;28;20567;-77
2022/06/03 00:41:33;;;;;;;4.37;4.00;;;;;;;19.15;54.82;98801.34;6947837;28;20296;-77
2022/06/03 00:45:03;;;;;;;4.10;3.70;;;;;;;19.28;54.45;98814.63;6947900;28;20211;-77
2022/06/03 00:48:33;;;;;;;4.00;3.60;;;;;;;19.30;54.62;98813.28;6949570;28;20589;-77
2022/06/03 00:52:11;;;;;;;4.03;3.63;;;;;;;19.35;53.58;98802.38;6947611;28;20318;-77
2022/06/03 00:55:52;;;;;;;3.93;3.50;;;;;;;18.45;56.16;98819.75;6947510;28;20296;-77
2022/06/03 00:59:25;;;;;;;4.43;3.97;;;;;;;18.54;56.77;98816.31;6947254;28;20255;-77
2022/06/03 01:03:09;;;;;;;4.20;3.50;;;;;;;18.61;55.83;98813.38;6947406;28;20219;-77
2022/06/03 01:06:41;;;;;;;3.80;3.50;;;;;;;19.14;54.39;98805.16;6947513;28;20238;-77
2022/06/03 01:10:19;;;;;;;4.70;4.10;;;;;;;18.90;55.38;98801.13;6946514;28;20227;-77
2022/06/03 01:13:56;;;;;;;4.67;4.27;;;;;;;19.07;54.79;98797.19;6949691;28;20402;-76
2022/06/03 01:17:27;;;;;;;4.50;3.67;;;;;;;19.14;54.67;98788.78;6947221;28;20250;-76
2022/06/03 01:21:02;;;;;;;4.37;4.07;;;;;;;18.08;57.54;98797.69;6961719;28;20234;-77
2022/06/03 01:24:57;;;;;;;4.70;4.10;;;;;;;18.77;55.42;98791.44;6953697;28;20270;-77
2022/06/03 01:28:50;;;;;;;3.87;3.57;;;;;;;18.55;55.83;98785.19;6946721;28;20285;-77
2022/06/03 01:32:42;;;;;;;4.03;3.70;;;;;;;18.78;55.67;98803.19;6921728;28;20686;-77
2022/06/03 01:36:22;;;;;;;4.13;3.60;;;;;;;18.68;55.70;98808.53;6946524;28;20280;-78
2022/06/03 01:39:56;;;;;;;4.87;3.93;;;;;;;18.25;56.74;98803.09;6946413;28;20290;-79
2022/06/03 01:43:43;;;;;;;4.30;4.00;;;;;;;18.51;56.99;98813.28;6949666;28;20197;-78
2022/06/03 01:47:51;;;;;;;4.37;4.03;;;;;;;18.27;57.02;98817.31;6948543;28;20187;-78
2022/06/03 01:51:24;;;;;;;4.50;4.10;;;;;;;18.24;56.62;98801.44;6926809;28;20231;-78
2022/06/03 01:55:18;;;;;;;4.50;4.13;;;;;;;18.43;56.45;98800.88;6948035;28;20337;-78
2022/06/03 01:59:18;;;;;;;4.37;3.97;;;;;;;18.58;56.11;98802.97;6948476;28;20255;-78
2022/06/03 02:03:09;;;;;;;4.00;3.70;;;;;;;18.29;56.49;98806.97;6940136;28;20676;-77
2022/06/03 02:07:18;;;;;;;4.17;3.87;;;;;;;18.35;56.17;98806.78;6947625;28;20219;-78
2022/06/03 02:11:13;;;;;;;4.47;4.07;;;;;;;17.62;58.46;98813.66;6947511;28;20249;-79
2022/06/03 02:15:13;;;;;;;4.57;4.17;;;;;;;18.20;57.12;98806.59;6948991;28;20213;-78
2022/06/03 02:19:09;;;;;;;4.50;4.10;;;;;;;18.44;56.50;98805.28;6897634;28;20266;-78
2022/06/03 02:22:48;;;;;;;4.10;3.80;;;;;;;18.46;56.13;98810.47;6948540;28;20313;-78
2022/06/03 02:26:30;;;;;;;4.53;3.77;;;;;;;18.82;54.77;98796.13;6948432;28;20789;-79
2022/06/03 02:30:27;;;;;;;3.70;3.40;;;;;;;18.76;54.33;98800.69;6950278;28;20241;-79
2022/06/03 02:34:15;;;;;;;4.47;4.07;;;;;;;18.38;54.84;98781.72;6946925;28;20311;-78
2022/06/03 02:37:49;;;;;;;4.80;4.40;;;;;;;17.53;58.73;98815.16;6945838;28;20219;-78
2022/06/03 02:41:30;;;;;;;4.70;4.30;;;;;;;17.72;57.90;98792.00;6949551;28;20288;-78
2022/06/03 02:45:27;;;;;;;4.60;4.20;;;;;;;18.33;56.45;98802.69;6954105;28;20473;-77
2022/06/03 02:49:31;;;;;;;4.23;3.90;;;;;;;18.50;55.66;98803.41;6932385;28;20238;-77
2022/06/03 02:53:19;;;;;;;5.27;3.83;;;;;;;18.49;55.41;98799.03;6931450;28;20629;-78
2022/06/03 02:56:55;;;;;;;4.00;3.70;;;;;;;18.13;56.81;98805.94;6948157;28;20226;-78
2022/06/03 03:00:24;;;;;;;4.20;3.80;;;;;;;18.36;56.06;98805.72;6955171;28;20234;-78
2022/06/03 03:04:01;;;;;;;6.57;4.70;;;;;;;17.65;57.47;98791.34;6955206;28;20225;-77
2022/06/03 03:07:34;;;;;;;4.70;4.20;;;;;;;18.00;57.10;98802.75;6954653;28;20242;-80
2022/06/03 03:11:09;;;;;;;4.80;4.40;;;;;;;18.14;56.91;98801.28;6955539;28;20254;-78
2022/06/03 03:14:49;;;;;;;4.37;4.07;;;;;;;18.29;56.78;98815.97;6956962;28;20187;-78
2022/06/03 03:18:36;;;;;;;5.27;4.20;;;;;;;18.23;56.56;98813.44;6953256;28;20249;-79
2022/06/03 03:22:38;;;;;;;4.70;4.00;;;;;;;18.51;55.32;98818.72;6948296;28;20275;-78
2022/06/03 03:26:08;;;;;;;4.17;3.77;;;;;;;18.48;55.68;98802.84;6942674;28;20251;-78
2022/06/03 03:29:43;;;;;;;5.50;4.23;;;;;;;17.98;56.59;98794.00;6974676;28;20231;-76
2022/06/03 03:33:15;;;;;;;4.70;4.30;;;;;;;18.56;55.99;98800.50;6951450;28;20238;-76
2022/06/03 03:37:24;;;;;;;4.30;3.90;;;;;;;18.09;56.92;98814.88;6950572;28;20223;-76
2022/06/03 03:41:11;;;;;;;4.50;4.13;;;;;;;18.33;56.62;98789.03;6945601;28;20241;-76
2022/06/03 03:44:56;;;;;;;4.00;3.70;;;;;;;18.65;54.87;98784.47;6954836;28;20392;-78
2022/06/03 03:48:44;;;;;;;4.63;4.20;;;;;;;18.32;56.14;98804.56;6917752;28;20672;-77
2022/06/03 03:52:39;;;;;;;4.30;3.93;;;;;;;18.14;56.72;98799.41;6937682;28;20281;-78
2022/06/03 03:56:30;;;;;;;4.40;3.93;;;;;;;18.40;56.15;98801.38;6932055;28;20267;-79
2022/06/03 04:00:16;;;;;;;3.90;3.60;;;;;;;18.85;54.94;98801.06;6950488;28;20238;-78
2022/06/03 04:04:04;;;;;;;4.37;3.97;;;;;;;18.76;55.09;98806.16;6946961;28;20218;-78
2022/06/03 04:07:49;;;;;;;4.07;3.70;;;;;;;18.81;54.66;98810.88;6951307;28;20229;-79
2022/06/03 04:11:37;;;;;;;4.33;3.93;;;;;;;18.92;54.61;98801.69;6950919;28;20226;-78
2022/06/03 04:15:32;;;;;;;5.10;4.00;;;;;;;18.68;55.01;98773.03;6952356;28;20294;-79
2022/06/03 04:19:15;;;;;;;4.57;4.17;;;;;;;18.68;55.71;98783.94;6884580;28;20299;-78
2022/06/03 04:23:02;;;;;;;5.17;4.50;;;;;;;18.20;57.28;98790.19;6923169;28;20274;-79
2022/06/03 04:26:55;;;;;;;13.10;11.80;;;;;;;18.73;56.21;98786.72;6900178;28;20302;-78
2022/06/03 04:30:32;;;;;;;7.63;6.93;;;;;;;18.75;55.77;98792.78;6926228;28;20304;-78
2022/06/03 04:34:03;;;;;;;5.77;5.23;;;;;;;18.47;56.14;98768.44;6944006;28;20226;-79
2022/06/03 04:38:06;;;;;;;6.80;6.20;;;;;;;18.47;56.78;98769.28;6947513;28;20250;-78
2022/06/03 04:42:01;;;;;;;6.33;5.73;;;;;;;18.48;57.00;98770.09;6949873;28;20875;-78
2022/06/03 04:46:05;;;;;;;4.83;4.30;;;;;;;18.92;56.29;98772.44;6968348;28;20596;-78
2022/06/03 04:50:05;;;;;;;5.17;4.47;;;;;;;19.14;55.52;98783.31;6976436;28;20232;-78
2022/06/03 04:53:51;;;;;;;6.40;4.63;;;;;;;19.12;55.72;98780.00;6930447;28;20297;-78
2022/06/03 04:58:01;;;;;;;4.77;4.03;;;;;;;19.24;55.45;98776.06;6943341;28;20630;-78
2022/06/03 05:01:55;;;;;;;4.83;4.30;;;;;;;19.79;54.40;98784.66;6931549;28;20294;-78
2022/06/03 05:06:01;;;;;;;4.90;4.50;;;;;;;20.07;52.99;98786.22;6950906;28;20198;-78
2022/06/03 05:09:51;;;;;;;4.30;3.93;;;;;;;20.54;51.38;98760.38;6948243;28;20261;-78
2022/06/03 05:13:43;;;;;;;4.07;3.67;;;;;;;21.01;51.12;98771.19;6949711;28;20850;-78
2022/06/03 05:17:21;;;;;;;4.13;3.73;;;;;;;21.23;50.71;98772.56;6946927;28;20699;-78
2022/06/03 05:21:16;;;;;;;4.60;4.20;;;;;;;21.68;49.44;98769.81;6948952;28;20241;-77
2022/06/03 05:25:01;;;;;;;4.07;3.77;;;;;;;21.37;49.42;98771.72;6915491;28;20682;-78
2022/06/03 05:28:39;;;;;;;4.30;3.90;;;;;;;21.56;49.99;98763.78;6948321;28;20188;-78
2022/06/03 05:32:35;;;;;;;5.07;3.80;;;;;;;22.27;47.63;98749.59;6949144;28;20263;-78
2022/06/03 05:36:26;;;;;;;3.60;3.33;;;;;;;23.27;45.54;98762.78;6942083;28;20204;-78
2022/06/03 05:39:59;;;;;;;5.57;3.93;;;;;;;23.61;44.45;98771.00;6948273;28;20315;-78
2022/06/03 05:43:34;;;;;;;7.40;3.57;;;;;;;23.83;44.22;98768.59;6948589;28;20214;-78
2022/06/03 05:47:01;;;;;;;4.07;3.63;;;;;;;23.17;45.08;98753.75;6947832;28;20272;-79
2022/06/03 05:50:29;;;;;;;6.00;3.80;;;;;;;22.84;46.39;98758.09;6947499;28;20591;-78
2022/06/03 05:53:56;;;;;;;4.10;3.80;;;;;;;23.45;45.71;98764.81;6946343;28;20449;-78
2022/06/03 05:57:28;;;;;;;4.10;3.70;;;;;;;24.05;44.62;98760.63;6948346;28;20297;-78
2022/06/03 06:00:56;;;;;;;6.07;3.70;;;;;;;24.40;42.92;98761.03;6948086;28;20802;-78
2022/06/03 06:04:22;;;;;;;5.43;4.03;;;;;;;24.61;43.32;98756.91;6948781;28;20673;-78
2022/06/03 06:07:50;;;;;;;3.70;3.40;;;;;;;24.40;43.80;98768.47;6948311;28;20189;-78
2022/06/03 06:11:19;;;;;;;5.43;3.90;;;;;;;25.10;42.70;98751.78;6948236;28;20321;-78
2022/06/03 06:14:53;;;;;;;3.63;3.40;;;;;;;25.67;39.99;98742.28;6948212;28;20245;-79
2022/06/03 06:18:23;;;;;;;3.80;3.47;;;;;;;26.12;39.47;98747.78;6952131;28;20223;-78
2022/06/03 06:22:09;;;;;;;3.53;3.20;;;;;;;27.38;36.54;98740.28;6954048;28;20771;-79
2022/06/03 06:25:37;;;;;;;5.17;3.50;;;;;;;27.43;37.82;98740.16;6953708;28;20187;-79
2022/06/03 06:29:13;;;;;;;4.20;3.50;;;;;;;27.45;36.81;98715.72;6952806;28;20182;-79
2022/06/03 06:32:56;;;;;;;3.53;3.20;;;;;;;27.76;36.88;98728.47;6953140;28;20223;-78
2022/06/03 06:36:49;;;;;;;4.30;3.03;;;;;;;28.13;35.79;98741.84;6952930;28;20191;-78
2022/06/03 06:40:20;;;;;;;4.03;3.00;;;;;;;28.55;34.54;98727.31;6931496;28;20609;-78
2022/06/03 06:43:46;;;;;;;3.43;3.13;;;;;;;28.16;35.83;98727.38;6953135;28;20281;-78
2022/06/03 06:47:15;;;;;;;4.10;3.50;;;;;;;27.07;37.65;98726.31;6953348;28;20214;-78
2022/06/03 06:50:42;;;;;;;4.57;2.87;;;;;;;28.16;36.10;98707.13;6952231;28;20766;-79
2022/06/03 06:54:11;;;;;;;3.53;3.23;;;;;;;28.27;36.48;98716.78;6952988;28;20319;-78
2022/06/03 06:57:34;;;;;;;3.23;3.00;;;;;;;28.93;34.44;98719.22;6952133;28;20225;-79
2022/06/03 07:00:57;;;;;;;3.33;2.80;;;;;;;29.21;34.31;98718.59;6952364;28;20239;-78
2022/06/03 07:04:22;;;;;;;3.47;3.17;;;;;;;29.14;34.08;98698.03;6952178;28;20241;-78
2022/06/03 07:07:51;;;;;;;3.40;3.17;;;;;;;27.52;36.88;98722.47;6952026;28;20215;-78
2022/06/03 07:11:15;;;;;;;3.67;3.27;;;;;;;28.26;36.51;98732.59;6952469;28;20241;-78
2022/06/03 07:14:54;;;;;;;3.87;3.30;;;;;;;27.12;39.02;98725.38;6952113;28;20210;-79
2022/06/03 07:22:05;;;;;;;3.40;3.10;;;;;;;28.39;36.55;98714.25;6952121;28;20228;-78
2022/06/03 07:25:30;;;;;;;3.93;2.90;;;;;;;28.45;36.69;98701.84;6952817;28;20228;-78
2022/06/03 07:28:56;;;;;;;4.70;3.17;;;;;;;28.10;37.19;98702.88;6951448;28;20201;-78
2022/06/03 07:32:21;;;;;;;7.30;3.20;;;;;;;27.92;36.40;98696.47;6951771;28;20194;-77
2022/06/03 07:35:47;;;;;;;3.40;3.10;;;;;;;28.22;36.52;98695.59;6951112;28;20686;-78
2022/06/03 07:39:28;;;;;;;6.53;3.63;;;;;;;27.40;37.66;98650.22;6951697;28;20236;-78
2022/06/03 07:42:54;;;;;;;3.90;3.30;;;;;;;27.51;37.80;98670.97;6951889;28;20223;-78
2022/06/03 07:46:20;;;;;;;3.87;3.47;;;;;;;28.31;37.46;98688.09;6951972;28;20649;-78
2022/06/03 07:49:53;;;;;;;3.50;3.20;;;;;;;28.96;35.59;98688.88;6951316;28;20232;-78
2022/06/03 07:53:18;;;;;;;4.53;3.40;;;;;;;26.98;39.74;98670.09;6950316;28;20258;-78
2022/06/03 07:56:41;;;;;;;3.67;3.37;;;;;;;26.92;39.08;98662.22;6950579;28;20193;-78
2022/06/03 08:00:06;;;;;;;3.50;3.20;;;;;;;28.37;37.18;98674.94;6949196;28;20233;-78
2022/06/03 08:03:37;;;;;;;4.20;2.97;;;;;;;28.84;36.66;98663.69;6949735;28;20654;-78
2022/06/03 08:11:00;;;;;;;3.27;2.97;;;;;;;28.54;37.64;98645.25;6950228;28;20220;-78
2022/06/03 08:14:28;;;;;;;3.90;3.43;;;;;;;29.65;35.68;98648.75;6924065;28;20554;-78
2022/06/03 08:17:51;;;;;;;4.00;2.87;;;;;;;28.85;36.28;98614.56;6922914;28;20264;-78
2022/06/03 08:21:14;;;;;;;5.13;2.90;;;;;;;29.70;35.99;98623.53;6932070;28;20219;-78
2022/06/03 08:24:40;;;;;;;4.40;3.20;;;;;;;28.95;36.51;98626.16;6950049;28;20733;-78
2022/06/03 08:28:02;;;;;;;3.47;3.10;;;;;;;29.36;35.85;98618.06;6944695;28;20194;-78
2022/06/03 08:31:25;;;;;;;2.93;2.70;;;;;;;30.25;34.95;98623.44;6950127;28;20307;-78
2022/06/03 08:34:49;;;;;;;4.33;3.30;;;;;;;29.90;35.10;98619.19;6950312;28;20218;-78
2022/06/03 08:38:14;;;;;;;3.67;3.27;;;;;;;29.59;35.66;98613.94;6948398;28;20692;-78
2022/06/03 08:41:42;;;;;;;4.83;3.40;;;;;;;28.78;37.94;98619.78;6949146;28;20266;-78
2022/06/03 08:45:16;;;;;;;3.30;3.00;;;;;;;30.16;35.38;98612.38;6951328;28;20206;-79
2022/06/03 08:48:42;;;;;;;4.23;3.33;;;;;;;29.98;35.59;98615.56;6952078;28;20914;-78
2022/06/03 08:52:06;;;;;;;5.20;3.27;;;;;;;30.10;35.61;98615.69;6950089;28;20535;-79
2022/06/03 08:55:38;;;;;;;3.13;2.93;;;;;;;30.37;35.02;98618.75;6951908;28;20256;-78
2022/06/03 08:59:01;;;;;;;2.73;2.50;;;;;;;30.18;34.10;98601.72;6935761;28;20226;-78
2022/06/03 09:02:29;;;;;;;4.20;2.50;;;;;;;30.68;32.48;98594.19;6921360;28;20223;-78
2022/06/03 09:05:56;;;;;;;2.70;2.50;;;;;;;30.92;30.81;98593.44;6921846;28;20193;-78
2022/06/03 09:09:24;;;;;;;3.40;3.10;;;;;;;30.25;31.58;98588.09;6920822;28;20236;-78
2022/06/03 09:12:52;;;;;;;4.50;2.70;;;;;;;30.46;33.49;98566.66;6922245;28;20201;-78
2022/06/03 09:16:17;;;;;;;3.23;2.97;;;;;;;30.33;33.45;98564.97;6922807;28;20310;-78
2022/06/03 09:19:42;;;;;;;5.30;2.87;;;;;;;29.88;34.72;98568.66;6921312;28;20240;-77
2022/06/03 09:23:08;;;;;;;3.50;2.70;;;;;;;30.39;34.10;98555.25;6925025;28;20217;-77
2022/06/03 09:26:34;;;;;;;4.00;2.97;;;;;;;30.57;33.77;98537.25;6948751;28;20245;-78
2022/06/03 09:29:58;;;;;;;3.23;2.93;;;;;;;30.62;33.42;98544.56;6948585;28;20238;-78
2022/06/03 09:33:21;;;;;;;3.10;2.80;;;;;;;31.01;33.09;98550.44;6922894;28;20235;-77
2022/06/03 09:36:43;;;;;;;3.80;2.90;;;;;;;31.40;32.67;98547.06;6920937;28;20221;-78
2022/06/03 09:40:09;;;;;;;4.07;2.53;;;;;;;31.21;32.30;98532.88;6930139;28;20771;-80
2022/06/03 09:43:33;;;;;;;2.93;2.60;;;;;;;30.50;33.17;98545.34;6949412;28;20208;-78
2022/06/03 09:46:59;;;;;;;3.57;2.63;;;;;;;30.12;33.69;98541.88;6948246;28;20739;-78
2022/06/03 09:50:23;;;;;;;2.90;2.70;;;;;;;32.24;31.05;98535.91;6948698;28;20716;-78
2022/06/03 09:53:45;;;;;;;3.30;3.00;;;;;;;30.98;33.05;98526.06;6954496;28;20214;-77
2022/06/03 09:57:13;;;;;;;3.23;2.93;;;;;;;33.30;30.70;98546.19;6954247;28;20210;-81
2022/06/03 10:00:41;;;;;;;2.80;2.60;;;;;;;33.72;29.39;98521.28;6954265;28;20717;-78
2022/06/03 10:04:06;;;;;;;3.83;2.80;;;;;;;32.79;30.41;98530.38;6954606;28;20255;-79
2022/06/03 10:07:27;;;;;;;5.80;3.43;;;;;;;33.62;29.36;98530.22;6953231;28;20291;-79
2022/06/03 10:14:30;;;;;;;2.83;2.63;;;;;;;33.97;28.98;98526.31;6954128;28;20188;-79
2022/06/03 10:17:52;;;;;;;3.57;2.80;;;;;;;33.88;29.47;98516.50;6953321;28;20217;-79
2022/06/03 10:21:32;;;;;;;3.63;2.73;;;;;;;33.63;28.97;98527.06;6953836;28;20227;-79
2022/06/03 10:24:55;;;;;;;2.97;2.50;;;;;;;33.13;29.39;98531.72;6953771;28;20183;-78
2022/06/03 10:28:17;;;;;;;2.40;2.20;;;;;;;34.32;27.55;98526.34;6952984;28;20207;-79
2022/06/03 10:31:40;;;;;;;2.60;2.40;;;;;;;34.13;27.85;98510.28;6953676;28;20320;-81
2022/06/03 10:35:11;;;;;;;3.40;2.50;;;;;;;34.08;28.66;98502.19;6953122;28;20204;-79
2022/06/03 10:38:36;;;;;;;3.20;2.27;;;;;;;33.68;27.99;98515.63;6952840;28;20214;-78
2022/06/03 10:41:59;;;;;;;4.13;2.30;;;;;;;33.73;27.88;98515.31;6953514;28;20234;-78
2022/06/03 10:45:26;;;;;;;2.60;2.40;;;;;;;34.26;27.08;98509.00;6953150;28;20270;-78
2022/06/03 10:48:49;;;;;;;2.87;2.50;;;;;;;35.19;25.90;98502.91;6952617;28;20207;-79
2022/06/03 11:03:41;;;;;;;2.70;2.23;;;;;;;35.32;25.63;98495.97;6918237;28;20225;-78
2022/06/03 11:07:23;;;;;;;3.17;2.30;;;;;;;35.26;25.96;98488.25;6952124;28;20592;-79
2022/06/03 11:10:47;;;;;;;2.40;2.20;;;;;;;35.33;25.78;98499.59;6946742;28;20257;-78
2022/06/03 11:14:27;;;;;;;2.50;2.30;;;;;;;35.21;26.56;98519.38;6952189;28;20211;-78
2022/06/03 11:17:49;;;;;;;2.70;2.50;;;;;;;35.55;25.81;98522.00;6953614;28;20273;-79
2022/06/03 11:21:20;;;;;;;2.47;2.27;;;;;;;33.50;28.18;98514.34;6952976;28;20219;-78
2022/06/03 11:24:48;;;;;;;3.30;2.50;;;;;;;33.83;28.65;98511.19;6952574;28;20241;-78
2022/06/03 11:28:13;;;;;;;2.40;2.20;;;;;;;31.97;30.62;98516.28;6958318;28;20208;-78
2022/06/03 11:31:37;;;;;;;2.50;2.30;;;;;;;31.91;30.76;98528.84;6961853;28;20238;-78
2022/06/03 11:35:01;;;;;;;2.30;2.10;;;;;;;33.71;28.65;98539.22;6952100;28;20656;-78
2022/06/03 11:38:28;;;;;;;3.00;2.30;;;;;;;34.35;27.45;98517.19;6951456;28;20715;-79
2022/06/03 11:41:56;;;;;;;2.40;2.20;;;;;;;34.42;26.24;98503.38;6951380;28;20287;-78
2022/06/03 11:45:19;;;;;;;2.50;2.30;;;;;;;34.90;26.15;98520.38;6951294;28;20202;-77
2022/06/03 11:48:42;;;;;;;3.70;2.30;;;;;;;34.03;28.14;98536.03;6951600;28;20237;-77
2022/06/03 11:52:04;;;;;;;2.33;2.13;;;;;;;34.15;27.63;98529.53;6951143;28;20234;-78
2022/06/03 11:55:28;;;;;;;4.83;2.27;;;;;;;33.66;29.60;98533.94;6951511;28;20380;-77
2022/06/03 11:58:58;;;;;;;4.00;2.60;;;;;;;33.40;30.24;98536.44;6951234;28;20707;-77
2022/06/03 12:02:25;;;;;;;2.57;2.37;;;;;;;33.05;30.35;98538.28;6949673;28;20325;-77
2022/06/03 12:05:51;;;;;;;3.80;2.13;;;;;;;32.83;30.63;98542.47;6951273;28;20278;-78
2022/06/03 12:09:23;;;;;;;3.10;2.80;;;;;;;31.75;33.84;98537.13;6951398;28;20234;-77
2022/06/03 12:16:27;;;;;;;4.13;2.57;;;;;;;31.97;33.90;98525.44;6950234;28;20393;-78
2022/06/03 12:19:50;;;;;;;4.10;2.53;;;;;;;32.45;33.06;98514.22;6947913;28;20224;-78
2022/06/03 12:23:48;;;;;;;5.30;2.80;;;;;;;31.99;34.63;98509.19;6950090;28;20202;-77
2022/06/03 12:27:20;;;;;;;3.17;2.50;;;;;;;32.07;34.30;98499.88;6923444;28;20230;-77
2022/06/03 12:30:47;;;;;;;3.03;2.70;;;;;;;31.31;35.86;98485.03;6945602;28;20227;-77
2022/06/03 12:34:22;;;;;;;4.97;2.80;;;;;;;31.45;35.26;98488.31;6949686;28;20196;-76
2022/06/03 12:37:45;;;;;;;2.67;2.47;;;;;;;31.92;34.26;98472.72;6946630;28;20196;-78
2022/06/03 12:41:07;;;;;;;3.07;2.80;;;;;;;31.39;35.96;98463.78;6948721;28;20317;-78
2022/06/03 12:44:48;;;;;;;3.30;2.90;;;;;;;31.85;34.92;98485.63;6944944;28;20269;-78
2022/06/03 12:48:40;;;;;;;5.50;2.90;;;;;;;31.93;35.39;98474.34;6922709;28;20205;-77
2022/06/03 12:52:07;;;;;;;3.33;2.70;;;;;;;31.96;34.31;98478.41;6922549;28;20608;-77
2022/06/03 12:55:30;;;;;;;7.90;2.90;;;;;;;32.09;34.70;98477.22;6923055;28;20216;-78
2022/06/03 12:58:59;;;;;;;2.77;2.57;;;;;;;32.28;34.12;98499.72;6922171;28;20700;-77
2022/06/03 13:02:22;;;;;;;2.83;2.63;;;;;;;32.55;34.04;98499.75;6921952;28;20233;-77
2022/06/03 13:05:46;;;;;;;2.93;2.70;;;;;;;32.51;34.15;98507.22;6921897;28;20209;-78
2022/06/03 13:12:50;;;;;;;4.50;3.10;;;;;;;31.74;35.81;98515.16;6923935;28;20186;-78
2022/06/03 13:16:54;;;;;;;3.43;3.03;;;;;;;31.33;36.75;98532.91;6934507;28;20217;-78
2022/06/03 13:20:33;;;;;;;4.20;3.40;;;;;;;31.07;37.08;98520.41;6949380;28;20236;-78
2022/06/03 13:23:59;;;;;;;4.23;3.00;;;;;;;31.22;39.37;98520.56;6950275;28;20225;-78
2022/06/03 13:27:30;;;;;;;3.90;3.50;;;;;;;31.46;40.45;98515.03;6957586;28;20261;-78
2022/06/03 13:31:11;;;;;;;5.83;3.37;;;;;;;31.44;42.51;98533.25;6965419;28;20235;-77
2022/06/03 13:34:42;;;;;;;5.20;3.80;;;;;;;30.91;43.35;98533.34;6928564;28;20203;-78
2022/06/03 13:38:16;;;;;;;4.80;3.77;;;;;;;30.72;42.42;98531.06;6931710;28;20216;-78
2022/06/03 13:45:24;;;;;;;17.37;10.37;;;;;;;30.36;41.93;98538.44;6929808;28;20190;-78
2022/06/03 13:49:01;;;;;;;5.37;3.77;;;;;;;30.48;41.60;98550.41;6922139;28;20715;-78
2022/06/03 13:52:25;;;;;;;4.33;3.93;;;;;;;30.50;42.36;98556.47;6922846;28;20281;-79
2022/06/03 13:55:51;;;;;;;5.13;4.43;;;;;;;30.40;41.97;98567.19;6923969;28;20329;-79
2022/06/03 13:59:15;;;;;;;4.63;4.10;;;;;;;30.19;41.65;98558.84;6922893;28;20230;-79
2022/06/03 14:02:40;;;;;;;4.30;3.67;;;;;;;30.62;40.59;98555.72;6922613;28;20217;-79
2022/06/03 14:06:07;;;;;;;4.33;3.60;;;;;;;30.74;40.10;98553.84;6922535;28;20208;-78
2022/06/03 14:09:32;;;;;;;4.90;3.70;;;;;;;30.63;40.35;98566.50;6937395;28;20235;-78
2022/06/03 14:12:59;;;;;;;4.13;3.70;;;;;;;30.92;40.29;98566.44;6947848;28;20217;-77
2022/06/03 14:16:24;;;;;;;9.27;4.63;;;;;;;31.00;43.71;98570.25;6924348;28;20493;-77
2022/06/03 14:20:05;;;;;;;5.83;4.03;;;;;;;30.41;42.95;98533.47;6946585;28;20295;-77
2022/06/03 14:23:31;;;;;;;5.13;4.40;;;;;;;30.88;43.14;98564.66;6863433;28;20216;-77
2022/06/03 14:26:56;;;;;;;4.30;3.90;;;;;;;30.43;42.85;98555.41;6861644;28;20214;-77
2022/06/03 14:30:21;;;;;;;5.77;4.17;;;;;;;30.66;42.52;98551.13;6859102;28;20231;-77
2022/06/03 14:33:45;;;;;;;5.77;3.80;;;;;;;30.52;41.36;98567.25;6863259;28;20301;-77
2022/06/03 14:37:19;;;;;;;5.70;4.10;;;;;;;30.46;41.01;98561.09;6863253;28;20274;-78
2022/06/03 14:40:43;;;;;;;4.40;3.67;;;;;;;30.15;39.95;98552.34;6867866;28;20233;-77
2022/06/03 14:44:08;;;;;;;7.67;3.10;;;;;;;29.83;39.60;98561.34;6867766;28;20204;-77
2022/06/03 14:47:31;;;;;;;4.30;3.20;;;;;;;30.16;38.51;98565.09;6862509;28;20208;-78
2022/06/03 14:50:56;;;;;;;3.93;2.90;;;;;;;30.37;38.08;98567.88;6867937;28;20242;-78
2022/06/03 14:54:24;;;;;;;7.20;4.30;;;;;;;30.65;37.09;98572.56;6850383;28;20377;-78
2022/06/03 14:57:49;;;;;;;4.30;2.90;;;;;;;30.90;36.23;98568.72;6867024;28;20219;-78
2022/06/03 15:01:30;;;;;;;4.70;2.90;;;;;;;31.34;35.54;98564.34;6935878;28;20706;-78
2022/06/03 15:04:55;;;;;;;4.13;2.87;;;;;;;31.22;36.10;98528.94;6950612;28;20214;-76
2022/06/03 15:08:19;;;;;;;5.40;3.37;;;;;;;31.65;35.79;98562.63;6951246;28;20581;-78
2022/06/03 15:11:46;;;;;;;7.30;3.40;;;;;;;31.44;35.90;98559.13;6950614;28;20818;-78
2022/06/03 15:15:08;;;;;;;4.13;3.30;;;;;;;31.19;36.29;98539.94;6951639;28;20202;-78
2022/06/03 15:18:29;;;;;;;4.37;3.50;;;;;;;31.81;35.14;98541.31;6950041;28;20209;-78
2022/06/03 15:21:53;;;;;;;3.67;3.30;;;;;;;31.74;35.11;98534.66;6950180;28;20240;-78
2022/06/03 15:25:17;;;;;;;3.47;3.17;;;;;;;31.74;34.45;98543.03;6951057;28;20203;-78
2022/06/03 15:28:40;;;;;;;4.23;3.20;;;;;;;32.29;34.73;98534.84;6951081;28;20291;-78
2022/06/03 15:32:02;;;;;;;4.57;2.87;;;;;;;32.28;32.97;98531.25;6976027;28;20225;-78
2022/06/03 15:35:26;;;;;;;4.20;3.03;;;;;;;32.51;33.56;98535.13;6951058;28;20212;-79
2022/06/03 15:38:50;;;;;;;3.20;2.90;;;;;;;31.62;33.73;98495.63;6952059;28;20241;-78
2022/06/03 15:42:21;;;;;;;4.37;2.93;;;;;;;31.37;33.99;98524.66;6964758;28;20244;-78
2022/06/03 15:45:48;;;;;;;4.17;2.90;;;;;;;31.77;34.05;98504.09;6956204;28;20200;-78
2022/06/03 15:49:12;;;;;;;3.40;3.10;;;;;;;31.71;34.24;98521.38;6950215;28;20715;-78
2022/06/03 15:52:41;;;;;;;4.40;3.20;;;;;;;31.74;33.78;98532.72;6951089;28;20207;-77
2022/06/03 15:56:23;;;;;;;7.23;3.20;;;;;;;31.54;33.63;98535.59;6950871;28;20231;-77
2022/06/03 15:59:57;;;;;;;5.53;2.77;;;;;;;31.42;34.32;98530.00;6950478;28;20280;-78
2022/06/03 16:03:25;;;;;;;3.80;3.00;;;;;;;31.79;34.01;98526.06;6950571;28;20220;-78
2022/06/03 16:06:51;;;;;;;3.23;2.80;;;;;;;31.98;33.46;98499.22;6950072;28;20592;-78
2022/06/03 16:10:18;;;;;;;3.53;3.17;;;;;;;32.08;33.93;98521.03;6950231;28;20229;-78
2022/06/03 16:13:50;;;;;;;5.90;3.20;;;;;;;32.45;32.64;98507.81;6949948;28;20236;-78
2022/06/03 16:17:31;;;;;;;3.13;2.83;;;;;;;32.15;33.36;98526.00;6950211;28;20205;-78
2022/06/03 16:20:57;;;;;;;3.40;3.10;;;;;;;32.07;33.53;98522.19;6943334;28;20236;-78
2022/06/03 16:24:27;;;;;;;5.60;3.00;;;;;;;32.38;33.03;98535.53;6950556;28;20661;-78
2022/06/03 16:27:59;;;;;;;5.33;3.17;;;;;;;32.14;33.11;98532.78;6950441;28;20299;-77
2022/06/03 16:31:24;;;;;;;5.70;4.00;;;;;;;31.94;33.63;98533.72;6950973;28;20591;-78
2022/06/03 16:34:50;;;;;;;5.67;3.77;;;;;;;31.71;34.05;98529.75;6922026;28;20205;-78
2022/06/03 16:38:18;;;;;;;5.13;3.47;;;;;;;31.50;34.61;98515.97;6920511;28;20256;-77
2022/06/03 16:41:46;;;;;;;6.17;3.23;;;;;;;31.90;34.42;98530.81;6923711;28;20241;-78
2022/06/03 16:49:18;;;;;;;5.40;3.30;;;;;;;32.04;34.10;98536.84;6922091;28;20204;-78
2022/06/03 16:52:44;;;;;;;4.97;3.50;;;;;;;31.45;35.24;98523.72;6948726;28;20206;-78
2022/06/03 16:56:07;;;;;;;7.17;3.90;;;;;;;31.79;34.54;98540.81;6981368;28;20702;-79
2022/06/03 16:59:31;;;;;;;6.87;3.80;;;;;;;31.40;35.64;98543.44;6978308;28;20718;-78
2022/06/03 17:02:57;;;;;;;6.13;3.90;;;;;;;31.79;34.83;98537.22;6950891;28;20239;-79
2022/06/03 17:06:18;;;;;;;4.63;3.97;;;;;;;31.64;35.14;98541.50;6949954;28;20222;-79
2022/06/03 17:09:43;;;;;;;5.63;4.00;;;;;;;31.35;35.76;98552.84;6949386;28;20243;-79
2022/06/03 17:13:07;;;;;;;6.80;5.40;;;;;;;31.48;35.32;98532.19;6949602;28;20255;-79
2022/06/03 17:16:33;;;;;;;5.00;4.00;;;;;;;31.39;35.30;98553.81;6945953;28;20199;-78
2022/06/03 17:20:06;;;;;;;7.47;4.10;;;;;;;31.52;35.47;98562.97;6950312;28;20242;-79
2022/06/03 17:23:50;;;;;;;5.30;3.77;;;;;;;31.33;35.03;98559.94;6948416;28;20314;-79